Time;durP1;ratioP1;P1;durP2;ratioP2;P2;SDS_P1;SDS_P2;PMS_P1;PMS_P2;Temp;Humidity;BMP_temperature;BMP_pressure;BME280_temperature;BME280_humidity;BME280_pressure;Samples;Min_cycle;Max_cycle;Signal;HPM_P1;HPM_P2
2022/11/23 00:01:21;;;;;;;21.70;10.52;;;;;;;3.20;99.67;97778.00;4932186;29;20060;-48
2022/11/23 00:03:50;;;;;;;17.67;10.63;;;;;;;3.25;99.85;97767.56;4932768;29;20044;-45
2022/11/23 00:06:18;;;;;;;21.75;12.55;;;;;;;3.30;99.80;97775.44;4915776;29;20051;-45
2022/11/23 00:08:44;;;;;;;24.65;12.38;;;;;;;3.33;99.56;97760.22;4932802;29;20062;-45
2022/11/23 00:11:11;;;;;;;22.45;11.43;;;;;;;3.36;99.91;97734.88;4932397;29;20059;-45
2022/11/23 00:13:39;;;;;;;11.60;6.90;;;;;;;3.45;99.80;97735.38;4932258;29;20054;-48
2022/11/23 00:16:08;;;;;;;11.30;6.60;;;;;;;3.56;99.92;97722.63;4933038;29;20107;-45
2022/11/23 00:18:35;;;;;;;12.20;6.57;;;;;;;3.62;100.00;97723.88;4932589;29;20131;-45
2022/11/23 00:21:06;;;;;;;11.30;5.45;;;;;;;3.68;100.00;97719.63;4915045;29;20051;-45
2022/11/23 00:23:34;;;;;;;11.07;4.90;;;;;;;3.73;100.00;97688.44;4932195;29;20055;-44
2022/11/23 00:26:01;;;;;;;7.85;5.07;;;;;;;3.78;100.00;97677.94;4932256;29;20082;-44
2022/11/23 00:28:28;;;;;;;8.70;4.63;;;;;;;3.82;100.00;97670.56;4931910;29;20055;-45
2022/11/23 00:30:55;;;;;;;8.25;4.43;;;;;;;3.87;99.82;97656.53;4913822;29;20055;-44
2022/11/23 00:33:21;;;;;;;7.50;4.32;;;;;;;3.93;99.93;97654.25;4929888;29;20067;-45
2022/11/23 00:35:58;;;;;;;7.40;3.40;;;;;;;3.98;100.00;97637.47;4931460;29;20055;-45
2022/11/23 00:38:26;;;;;;;11.20;3.08;;;;;;;4.05;100.00;97624.63;4932056;29;20048;-48
2022/11/23 00:41:11;;;;;;;5.32;2.42;;;;;;;4.15;100.00;97617.69;4931886;29;20541;-44
2022/11/23 00:43:38;;;;;;;5.40;2.07;;;;;;;4.23;100.00;97603.69;4931710;29;20058;-44
2022/11/23 00:46:07;;;;;;;6.75;2.78;;;;;;;4.32;100.00;97606.06;4931571;29;20040;-46
2022/11/23 00:48:34;;;;;;;5.65;2.13;;;;;;;4.43;100.00;97595.19;4931967;29;20130;-44
2022/11/23 00:51:06;;;;;;;5.90;1.52;;;;;;;4.51;100.00;97591.34;4931560;29;20393;-44
2022/11/23 00:53:34;;;;;;;4.43;1.20;;;;;;;4.58;100.00;97573.00;4931622;29;20073;-44
2022/11/23 00:56:01;;;;;;;10.38;2.47;;;;;;;4.64;99.84;97573.41;4931645;29;20370;-51
2022/11/23 00:58:28;;;;;;;3.75;1.52;;;;;;;4.70;100.00;97563.66;4931841;29;20419;-44
2022/11/23 01:01:07;;;;;;;4.18;1.80;;;;;;;4.78;100.00;97546.09;4913362;29;20058;-45
2022/11/23 01:03:35;;;;;;;3.50;1.38;;;;;;;4.86;100.00;97547.69;4927362;29;20387;-44
2022/11/23 01:06:09;;;;;;;7.00;1.35;;;;;;;4.91;100.00;97541.84;4931369;29;20066;-44
2022/11/23 01:08:36;;;;;;;6.93;1.50;;;;;;;4.97;100.00;97521.13;4931376;29;20420;-49
2022/11/23 01:11:09;;;;;;;14.30;3.00;;;;;;;5.04;100.00;97523.88;4931443;29;20078;-44
2022/11/23 01:13:40;;;;;;;3.80;1.10;;;;;;;5.13;100.00;97507.84;4931291;29;20078;-44
2022/11/23 01:16:16;;;;;;;11.73;2.22;;;;;;;5.19;100.00;97503.53;4931108;29;20058;-44
2022/11/23 01:18:58;;;;;;;2.53;0.90;;;;;;;5.29;100.00;97491.84;4931068;29;20043;-44
2022/11/23 01:21:26;;;;;;;4.90;1.38;;;;;;;5.33;100.00;97483.59;4931031;29;20063;-44
2022/11/23 01:23:53;;;;;;;4.38;1.60;;;;;;;5.36;100.00;97482.81;4931083;29;20416;-45
2022/11/23 01:26:21;;;;;;;7.88;1.40;;;;;;;5.38;100.00;97470.28;4931137;29;20052;-44
2022/11/23 01:28:48;;;;;;;8.00;1.40;;;;;;;5.40;100.00;97461.69;4930531;29;20142;-45
2022/11/23 01:31:18;;;;;;;4.68;1.77;;;;;;;5.45;100.00;97453.81;4930361;29;20413;-47
2022/11/23 01:33:46;;;;;;;11.43;1.42;;;;;;;5.50;100.00;97428.75;4930686;29;20047;-45
2022/11/23 01:36:21;;;;;;;7.60;1.65;;;;;;;5.58;100.00;97423.25;4930704;29;20130;-44
2022/11/23 01:38:49;;;;;;;6.85;1.35;;;;;;;5.65;100.00;97413.06;4930871;29;20058;-44
2022/11/23 01:41:21;;;;;;;5.97;1.38;;;;;;;5.72;100.00;97407.56;4930671;29;20050;-44
2022/11/23 01:43:48;;;;;;;6.65;1.90;;;;;;;5.76;100.00;97413.03;4930626;29;20427;-44
2022/11/23 01:46:16;;;;;;;6.45;1.45;;;;;;;5.77;100.00;97417.38;4930456;29;20439;-44
2022/11/23 01:48:50;;;;;;;10.35;1.50;;;;;;;5.78;100.00;97411.47;4930837;29;20387;-44
2022/11/23 01:51:25;;;;;;;6.63;1.17;;;;;;;5.82;100.00;97408.72;4918301;29;20058;-44
2022/11/23 01:53:54;;;;;;;10.02;1.30;;;;;;;5.83;100.00;97407.53;4930415;29;20048;-47
2022/11/23 01:56:27;;;;;;;5.95;1.42;;;;;;;5.84;100.00;97406.38;4930154;29;20048;-45
2022/11/23 01:58:59;;;;;;;6.40;1.50;;;;;;;5.88;100.00;97388.72;4924508;29;20044;-45
2022/11/23 02:01:26;;;;;;;5.95;1.77;;;;;;;5.94;100.00;97367.16;4929474;29;20059;-47
2022/11/23 02:03:55;;;;;;;8.00;1.20;;;;;;;5.96;100.00;97346.34;4930419;29;20256;-45
2022/11/23 02:06:22;;;;;;;9.95;1.45;;;;;;;6.02;100.00;97335.75;4930560;29;20401;-48
2022/11/23 02:08:49;;;;;;;7.72;2.08;;;;;;;6.06;100.00;97333.78;4930228;29;20054;-45
2022/11/23 02:11:16;;;;;;;6.15;1.55;;;;;;;6.09;100.00;97332.97;4930150;29;20047;-45
2022/11/23 02:13:45;;;;;;;12.63;1.98;;;;;;;6.12;100.00;97326.69;4930011;29;20449;-45
2022/11/23 02:16:13;;;;;;;8.35;1.38;;;;;;;6.13;100.00;97323.56;4930377;29;20063;-45
2022/11/23 02:18:45;;;;;;;14.50;2.58;;;;;;;6.14;100.00;97319.59;4929769;29;20391;-46
2022/11/23 02:21:13;;;;;;;9.95;1.65;;;;;;;6.17;100.00;97307.03;4930100;29;20158;-45
2022/11/23 02:24:02;;;;;;;6.97;2.08;;;;;;;6.20;100.00;97278.00;4930095;29;20399;-45
2022/11/23 02:26:32;;;;;;;4.68;1.58;;;;;;;6.22;100.00;97257.22;4930047;29;20047;-45
2022/11/23 02:29:11;;;;;;;17.13;2.63;;;;;;;6.25;100.00;97234.41;4929062;29;20135;-45
2022/11/23 02:31:38;;;;;;;6.22;1.85;;;;;;;6.27;100.00;97229.31;4929947;29;20065;-46
2022/11/23 02:34:05;;;;;;;12.00;1.40;;;;;;;6.31;100.00;97224.56;4929961;29;20047;-44
2022/11/23 02:36:49;;;;;;;12.00;1.90;;;;;;;6.35;100.00;97197.88;4929777;29;20048;-45
2022/11/23 02:39:35;;;;;;;9.00;3.38;;;;;;;6.40;100.00;97172.72;4930055;29;20095;-50
2022/11/23 02:42:04;;;;;;;15.32;1.33;;;;;;;6.45;100.00;97172.28;4929774;29;20141;-45
2022/11/23 02:44:33;;;;;;;7.80;1.55;;;;;;;6.50;100.00;97165.56;4929604;29;20154;-46
2022/11/23 02:47:00;;;;;;;5.93;1.77;;;;;;;6.58;100.00;97145.88;4929923;29;20071;-50
2022/11/23 02:49:27;;;;;;;8.95;1.33;;;;;;;6.66;100.00;97130.88;4929877;29;20075;-45
2022/11/23 02:51:54;;;;;;;14.02;1.45;;;;;;;6.72;100.00;97104.47;4929591;29;20402;-45
2022/11/23 02:54:21;;;;;;;11.10;1.88;;;;;;;6.80;100.00;97102.47;4929532;29;20047;-50
2022/11/23 02:56:47;;;;;;;11.82;1.42;;;;;;;6.87;100.00;97082.34;4929615;29;20063;-45
2022/11/23 02:59:14;;;;;;;14.80;2.42;;;;;;;6.97;100.00;97059.44;4928983;29;20123;-47
2022/11/23 03:01:41;;;;;;;19.63;3.13;;;;;;;7.06;100.00;97054.25;4956907;23;20086;-44
2022/11/23 03:04:09;;;;;;;8.50;1.98;;;;;;;7.17;100.00;97033.69;4928874;29;20115;-44
2022/11/23 03:06:36;;;;;;;10.02;1.40;;;;;;;7.25;100.00;97026.88;4927081;29;20429;-44
2022/11/23 03:09:03;;;;;;;13.40;1.33;;;;;;;7.35;100.00;97016.94;4929320;29;20056;-44
2022/11/23 03:11:30;;;;;;;13.88;1.40;;;;;;;7.42;100.00;97016.81;4915028;29;20086;-44
2022/11/23 03:13:58;;;;;;;15.93;2.90;;;;;;;7.52;100.00;97013.13;4932181;29;20047;-51
2022/11/23 03:16:24;;;;;;;6.68;1.42;;;;;;;7.62;100.00;97012.22;4931980;29;20051;-44
2022/11/23 03:18:53;;;;;;;18.98;1.90;;;;;;;7.70;100.00;97010.91;4931875;29;20382;-44
2022/11/23 03:21:20;;;;;;;10.32;3.38;;;;;;;7.76;100.00;97002.94;4932570;29;20490;-44
2022/11/23 03:23:47;;;;;;;13.15;2.60;;;;;;;7.80;100.00;96998.16;4931935;29;20054;-44
2022/11/23 03:26:13;;;;;;;22.58;2.08;;;;;;;7.84;100.00;96996.91;4931703;29;20138;-45
2022/11/23 03:28:40;;;;;;;14.57;1.90;;;;;;;7.89;100.00;96979.13;4931819;29;20055;-43
2022/11/23 03:31:07;;;;;;;21.33;3.33;;;;;;;7.92;100.00;96973.56;4931094;29;20110;-44
2022/11/23 03:33:34;;;;;;;15.88;1.50;;;;;;;8.00;100.00;96963.19;4932046;29;20135;-44
2022/11/23 03:36:01;;;;;;;16.63;1.88;;;;;;;8.05;100.00;96959.22;4931692;29;20051;-44
2022/11/23 03:38:28;;;;;;;12.82;1.50;;;;;;;8.09;100.00;96948.88;4931868;29;20052;-47
2022/11/23 03:40:54;;;;;;;21.02;2.55;;;;;;;8.15;100.00;96947.22;4932015;29;20044;-44
2022/11/23 03:43:22;;;;;;;17.55;2.17;;;;;;;8.22;100.00;96914.00;4931823;29;20102;-44
2022/11/23 03:45:48;;;;;;;17.55;3.58;;;;;;;8.26;100.00;96931.28;4931393;29;20047;-44
2022/11/23 03:48:15;;;;;;;10.05;2.35;;;;;;;8.31;100.00;96917.03;4931830;29;20048;-46
2022/11/23 03:50:43;;;;;;;6.90;1.63;;;;;;;8.37;100.00;96909.81;4931544;29;20091;-44
2022/11/23 03:53:10;;;;;;;21.15;2.72;;;;;;;8.38;100.00;96923.19;4931739;29;20052;-44
2022/11/23 03:55:37;;;;;;;13.95;2.58;;;;;;;8.41;100.00;96907.78;4931798;29;20048;-44
2022/11/23 03:58:04;;;;;;;20.38;2.20;;;;;;;8.45;100.00;96883.66;4930277;29;20062;-44
2022/11/23 04:00:31;;;;;;;15.65;3.60;;;;;;;8.45;100.00;96873.41;4931579;29;20510;-46
2022/11/23 04:02:58;;;;;;;13.02;2.35;;;;;;;8.50;100.00;96869.38;4889158;29;1270035;-45
2022/11/23 04:05:26;;;;;;;18.52;2.60;;;;;;;8.51;100.00;96855.19;4933219;29;20047;-45
2022/11/23 04:07:53;;;;;;;24.58;2.80;;;;;;;8.56;100.00;96840.13;4933063;29;20052;-46
2022/11/23 04:10:20;;;;;;;20.80;2.70;;;;;;;8.60;100.00;96843.59;4932591;29;20058;-44
2022/11/23 04:12:51;;;;;;;19.20;2.97;;;;;;;8.62;100.00;96846.69;4933227;29;20082;-44
2022/11/23 04:15:18;;;;;;;14.03;2.23;;;;;;;8.64;100.00;96847.03;4933181;29;20147;-45
2022/11/23 04:17:46;;;;;;;17.75;3.78;;;;;;;8.68;100.00;96847.75;4915730;29;20462;-46
2022/11/23 04:20:14;;;;;;;13.68;1.80;;;;;;;8.67;100.00;96835.16;4932245;29;20508;-44
2022/11/23 04:22:41;;;;;;;9.30;2.33;;;;;;;8.69;100.00;96835.50;4932665;29;20386;-44
2022/11/23 04:25:08;;;;;;;9.57;1.80;;;;;;;8.73;100.00;96811.38;4932807;29;20055;-44
2022/11/23 04:27:35;;;;;;;19.92;1.95;;;;;;;8.74;100.00;96812.94;4931351;29;20508;-44
2022/11/23 04:30:03;;;;;;;15.82;1.85;;;;;;;8.73;100.00;96816.91;4932487;29;20056;-44
2022/11/23 04:32:30;;;;;;;11.93;1.77;;;;;;;8.72;100.00;96820.84;4932175;29;20055;-44
2022/11/23 04:34:56;;;;;;;0.95;0.52;;;;;;;8.66;100.00;96863.91;4932231;29;20139;-44
2022/11/23 04:37:23;;;;;;;2.05;0.20;;;;;;;8.46;100.00;96877.75;4932357;29;20075;-46
2022/11/23 04:39:50;;;;;;;0.05;0.00;;;;;;;8.16;100.00;96877.91;4932056;29;20055;-48
2022/11/23 04:42:17;;;;;;;0.43;0.10;;;;;;;7.92;100.00;96885.44;4931767;29;20069;-44
2022/11/23 04:44:44;;;;;;;0.90;0.77;;;;;;;7.75;100.00;96897.56;4932290;29;20134;-44
2022/11/23 04:47:11;;;;;;;0.25;0.15;;;;;;;7.58;100.00;96898.63;4931806;29;20058;-45
2022/11/23 04:49:40;;;;;;;0.55;0.10;;;;;;;7.47;100.00;96902.72;4931863;29;20134;-44
2022/11/23 04:52:07;;;;;;;0.00;0.00;;;;;;;7.38;100.00;96908.78;4931645;29;20051;-48
2022/11/23 04:54:34;;;;;;;2.25;0.10;;;;;;;7.31;100.00;96919.88;4932248;29;20651;-44
2022/11/23 04:57:01;;;;;;;0.73;0.05;;;;;;;7.24;100.00;96907.03;4930760;29;20050;-45
2022/11/23 04:59:28;;;;;;;0.10;0.00;;;;;;;7.21;100.00;96902.34;4929402;29;20074;-45
2022/11/23 05:01:55;;;;;;;0.40;0.10;;;;;;;7.20;100.00;96883.53;4930521;29;20063;-44
2022/11/23 05:04:21;;;;;;;0.88;0.17;;;;;;;7.16;100.00;96897.34;4914650;29;20043;-44
2022/11/23 05:06:48;;;;;;;1.02;0.30;;;;;;;7.16;100.00;96891.84;4931761;29;20044;-44
2022/11/23 05:09:15;;;;;;;1.38;0.30;;;;;;;7.12;100.00;96893.09;4931381;29;20063;-44
2022/11/23 05:11:42;;;;;;;3.30;1.00;;;;;;;7.10;100.00;96907.25;4931184;29;20039;-44
2022/11/23 05:14:08;;;;;;;6.18;0.38;;;;;;;7.09;100.00;96913.16;4931378;29;20426;-44
2022/11/23 05:16:35;;;;;;;1.63;0.55;;;;;;;7.04;100.00;96914.38;4930953;29;20052;-48
2022/11/23 05:19:02;;;;;;;6.50;0.55;;;;;;;7.02;100.00;96916.00;4931384;29;20044;-44
2022/11/23 05:21:29;;;;;;;1.05;0.38;;;;;;;6.99;100.00;96923.09;4931152;29;20632;-44
2022/11/23 05:23:55;;;;;;;5.38;0.82;;;;;;;6.98;100.00;96937.28;4913815;29;20135;-48
2022/11/23 05:26:22;;;;;;;6.85;0.88;;;;;;;6.96;100.00;96934.16;4930884;29;20047;-44
2022/11/23 05:28:49;;;;;;;9.10;1.40;;;;;;;6.95;100.00;96954.59;4930782;29;20533;-44
2022/11/23 05:31:16;;;;;;;4.45;0.50;;;;;;;6.95;100.00;96954.59;4929852;29;20062;-43
2022/11/23 05:33:44;;;;;;;2.47;0.47;;;;;;;6.92;100.00;96950.72;4930572;29;20055;-47
2022/11/23 05:36:14;;;;;;;2.88;0.73;;;;;;;6.90;100.00;96957.81;4931016;29;20405;-44
2022/11/23 05:38:41;;;;;;;5.50;0.70;;;;;;;6.87;100.00;96958.63;4930790;29;20375;-43
2022/11/23 05:41:08;;;;;;;6.28;1.75;;;;;;;6.85;100.00;96977.53;4930702;29;20118;-43
2022/11/23 05:43:34;;;;;;;5.63;1.20;;;;;;;6.84;100.00;96967.69;4930766;29;20146;-44
2022/11/23 05:46:02;;;;;;;8.82;2.97;;;;;;;6.83;100.00;96974.41;4929554;29;20047;-44
2022/11/23 05:48:28;;;;;;;5.50;0.65;;;;;;;6.80;100.00;96977.97;4930341;29;20051;-44
2022/11/23 05:50:55;;;;;;;3.08;0.68;;;;;;;6.77;100.00;96982.31;4913495;29;20058;-44
2022/11/23 05:53:30;;;;;;;9.57;0.98;;;;;;;6.75;100.00;96988.22;4930526;29;20158;-46
2022/11/23 05:56:00;;;;;;;7.78;1.02;;;;;;;6.73;100.00;96995.31;4930278;29;20501;-44
2022/11/23 05:58:28;;;;;;;6.85;1.98;;;;;;;6.69;100.00;97003.63;4930231;29;20055;-44
2022/11/23 06:00:59;;;;;;;6.22;1.02;;;;;;;6.67;100.00;97005.22;4930519;29;20462;-44
2022/11/23 06:03:26;;;;;;;2.90;0.80;;;;;;;6.65;100.00;97013.88;4930816;29;20047;-44
2022/11/23 06:05:53;;;;;;;4.78;0.50;;;;;;;6.66;100.00;97020.16;4930431;29;20062;-44
2022/11/23 06:08:20;;;;;;;3.47;0.60;;;;;;;6.66;100.00;97026.44;4929867;29;20638;-49
2022/11/23 06:10:46;;;;;;;7.47;1.25;;;;;;;6.67;100.00;97032.72;4930536;29;20082;-45
2022/11/23 06:13:13;;;;;;;6.55;1.23;;;;;;;6.66;100.00;97042.91;4930267;29;20119;-47
2022/11/23 06:15:40;;;;;;;3.17;1.98;;;;;;;6.65;100.00;97040.56;4929436;29;20044;-44
2022/11/23 06:18:08;;;;;;;6.93;1.17;;;;;;;6.62;100.00;97047.66;4913411;29;20884;-44
2022/11/23 06:20:35;;;;;;;7.40;1.92;;;;;;;6.58;100.00;97054.38;4930104;29;20135;-44
2022/11/23 06:23:02;;;;;;;5.45;0.80;;;;;;;6.56;100.00;97059.53;4929663;29;20047;-44
2022/11/23 06:25:29;;;;;;;4.60;1.10;;;;;;;6.53;100.00;97066.63;4929556;29;20051;-44
2022/11/23 06:27:58;;;;;;;5.18;0.80;;;;;;;6.51;100.00;97068.97;4929793;29;20078;-44
2022/11/23 06:30:27;;;;;;;5.30;0.88;;;;;;;6.50;100.00;97083.13;4929926;29;20078;-45
2022/11/23 06:32:54;;;;;;;7.18;0.95;;;;;;;6.50;100.00;97083.91;4930008;29;20446;-43
2022/11/23 06:35:21;;;;;;;9.52;1.23;;;;;;;6.50;100.00;97094.13;4913096;29;20500;-49
2022/11/23 06:37:50;;;;;;;10.80;1.23;;;;;;;6.49;100.00;97098.03;4929965;29;20508;-44
2022/11/23 06:40:17;;;;;;;9.25;1.30;;;;;;;6.46;100.00;97110.63;4929569;29;20056;-44
2022/11/23 06:42:46;;;;;;;4.43;1.00;;;;;;;6.43;100.00;97108.72;4929544;29;20139;-44
2022/11/23 06:45:13;;;;;;;8.77;1.55;;;;;;;6.41;100.00;97113.81;4929146;29;20043;-44
2022/11/23 06:47:40;;;;;;;8.27;0.80;;;;;;;6.40;100.00;97114.22;4929142;29;20058;-44
2022/11/23 06:50:08;;;;;;;10.48;1.10;;;;;;;6.38;100.00;97131.09;4929912;29;20113;-46
2022/11/23 06:52:35;;;;;;;8.57;1.52;;;;;;;6.36;100.00;97135.44;4929604;29;20040;-45
2022/11/23 06:55:02;;;;;;;9.75;1.17;;;;;;;6.33;100.00;97133.53;4929851;29;20506;-44
2022/11/23 06:57:28;;;;;;;6.07;1.05;;;;;;;6.30;100.00;97137.84;4928930;29;20043;-47
2022/11/23 06:59:55;;;;;;;8.95;1.27;;;;;;;6.29;100.00;97141.00;4928063;29;20051;-44
2022/11/23 07:02:22;;;;;;;5.90;1.20;;;;;;;6.27;100.00;97141.41;4929373;29;20051;-44
2022/11/23 07:04:51;;;;;;;6.82;1.63;;;;;;;6.26;100.00;97150.03;4929840;29;20043;-44
2022/11/23 07:07:17;;;;;;;5.95;1.60;;;;;;;6.25;100.00;97160.25;4929870;29;20061;-44
2022/11/23 07:09:44;;;;;;;11.10;1.58;;;;;;;6.22;100.00;97166.56;4928543;29;20063;-45
2022/11/23 07:12:11;;;;;;;6.45;1.05;;;;;;;6.20;100.00;97179.13;4929687;29;20048;-44
2022/11/23 07:14:38;;;;;;;8.57;1.80;;;;;;;6.19;100.00;97172.88;4929756;29;20048;-44
2022/11/23 07:17:04;;;;;;;10.90;2.78;;;;;;;6.19;100.00;97183.84;4929469;29;20399;-44
2022/11/23 07:19:31;;;;;;;14.77;1.88;;;;;;;6.19;100.00;97183.84;4912796;29;20131;-44
2022/11/23 07:21:58;;;;;;;6.85;2.17;;;;;;;6.16;100.00;97187.41;4929288;29;20043;-45
2022/11/23 07:24:25;;;;;;;13.68;1.80;;;;;;;6.15;100.00;97188.56;4929798;29;20084;-44
2022/11/23 07:26:52;;;;;;;11.57;1.80;;;;;;;6.14;100.00;97192.53;4929686;29;20056;-44
2022/11/23 07:29:19;;;;;;;13.65;2.30;;;;;;;6.12;100.00;97214.09;4929919;29;20086;-48
2022/11/23 07:31:45;;;;;;;7.78;1.65;;;;;;;6.12;100.00;97216.84;4929677;29;20126;-47
2022/11/23 07:34:12;;;;;;;8.13;2.08;;;;;;;6.14;100.00;97225.47;4929677;29;20052;-45
2022/11/23 07:36:39;;;;;;;10.80;1.52;;;;;;;6.12;100.00;97227.81;4929872;29;20055;-44
2022/11/23 07:39:06;;;;;;;12.93;1.73;;;;;;;6.11;100.00;97237.25;4928660;29;20051;-45
2022/11/23 07:41:33;;;;;;;11.88;1.48;;;;;;;6.11;100.00;97231.75;4929826;29;20059;-45
2022/11/23 07:43:59;;;;;;;12.40;2.40;;;;;;;6.08;100.00;97238.84;4929456;29;20525;-44
2022/11/23 07:46:26;;;;;;;12.45;1.35;;;;;;;6.08;100.00;97251.78;4929815;29;20072;-43
2022/11/23 07:49:00;;;;;;;13.40;2.38;;;;;;;6.07;100.00;97247.47;4929453;29;20383;-44
2022/11/23 07:51:28;;;;;;;15.13;3.22;;;;;;;6.06;100.00;97262.41;4929464;29;20102;-44
2022/11/23 07:53:56;;;;;;;9.65;1.83;;;;;;;6.06;100.00;97267.88;4929269;29;20060;-44
2022/11/23 07:56:23;;;;;;;10.45;2.67;;;;;;;6.05;100.00;97261.59;4931985;29;20138;-44
2022/11/23 07:58:51;;;;;;;14.68;2.70;;;;;;;6.05;100.00;97274.53;4933104;29;20138;-44
2022/11/23 08:01:18;;;;;;;10.70;3.03;;;;;;;6.05;100.00;97266.31;4932094;29;20535;-44
2022/11/23 08:03:46;;;;;;;13.77;2.50;;;;;;;6.08;100.00;97268.25;4932844;29;20134;-44
2022/11/23 08:06:14;;;;;;;11.25;1.90;;;;;;;6.06;100.00;97274.13;4932489;29;20126;-48
2022/11/23 08:08:41;;;;;;;14.57;2.45;;;;;;;6.08;100.00;97277.28;4931910;29;20040;-45
2022/11/23 08:11:09;;;;;;;9.88;2.00;;;;;;;6.06;100.00;97281.63;4932482;29;20469;-44
2022/11/23 08:13:36;;;;;;;9.90;2.58;;;;;;;6.05;100.00;97277.28;4932194;29;20058;-45
2022/11/23 08:16:03;;;;;;;14.68;3.80;;;;;;;6.03;100.00;97272.22;4932611;29;20054;-46
2022/11/23 08:18:33;;;;;;;12.00;3.03;;;;;;;6.02;100.00;97278.09;4932562;29;20059;-44
2022/11/23 08:21:00;;;;;;;18.55;2.70;;;;;;;6.04;100.00;97281.22;4932487;29;20098;-44
2022/11/23 08:23:27;;;;;;;6.80;1.55;;;;;;;6.04;100.00;97272.97;4932390;29;20051;-44
2022/11/23 08:25:54;;;;;;;13.80;2.75;;;;;;;6.04;100.00;97281.22;4931857;29;20067;-45
2022/11/23 08:28:21;;;;;;;11.15;3.58;;;;;;;6.05;100.00;97282.78;4932300;29;20119;-48
2022/11/23 08:30:48;;;;;;;20.08;2.33;;;;;;;6.06;100.00;97276.13;4931373;29;20043;-45
2022/11/23 08:33:15;;;;;;;15.68;2.67;;;;;;;6.08;100.00;97271.78;4931355;29;20494;-44
2022/11/23 08:35:42;;;;;;;14.00;2.28;;;;;;;6.08;100.00;97266.31;4926100;29;20612;-43
2022/11/23 08:38:10;;;;;;;15.88;2.70;;;;;;;6.09;100.00;97272.56;4925428;29;20071;-44
2022/11/23 08:40:37;;;;;;;20.58;3.05;;;;;;;6.12;100.00;97269.00;4931773;29;20052;-45
2022/11/23 08:43:04;;;;;;;10.38;2.85;;;;;;;6.12;100.00;97267.06;4931655;29;20521;-44
2022/11/23 08:45:31;;;;;;;11.43;2.53;;;;;;;6.16;100.00;97267.03;4931631;29;20053;-44
2022/11/23 08:48:01;;;;;;;18.02;3.67;;;;;;;6.19;100.00;97276.44;4931696;29;20035;-44
2022/11/23 08:50:29;;;;;;;12.60;2.50;;;;;;;6.22;100.00;97273.69;4928549;29;20569;-46
2022/11/23 08:52:58;;;;;;;17.38;2.60;;;;;;;6.26;100.00;97271.69;4933709;29;20126;-44
2022/11/23 08:55:26;;;;;;;14.40;2.22;;;;;;;6.29;100.00;97279.13;4933268;29;20055;-44
2022/11/23 08:57:55;;;;;;;15.63;3.25;;;;;;;6.31;100.00;97268.53;4933296;29;20051;-44
2022/11/23 09:00:23;;;;;;;15.45;3.33;;;;;;;6.34;100.00;97272.44;4933271;29;20465;-45
2022/11/23 09:02:51;;;;;;;12.63;3.13;;;;;;;6.35;100.00;97285.78;4933472;29;20055;-46
2022/11/23 09:05:18;;;;;;;15.95;2.83;;;;;;;6.38;100.00;97290.44;4931268;29;20123;-45
2022/11/23 09:07:45;;;;;;;18.33;2.88;;;;;;;6.38;100.00;97290.44;4929278;29;20059;-44
2022/11/23 09:10:12;;;;;;;16.80;2.05;;;;;;;6.41;100.00;97288.88;4927000;29;20043;-50
2022/11/23 09:12:44;;;;;;;;;;;;;;;6.42;100.00;97312.41;4932764;29;20121;-45
2022/11/23 09:15:11;;;;;;;21.45;3.67;;;;;;;6.42;100.00;97307.72;4932475;29;19958;-48
2022/11/23 09:17:37;;;;;;;11.82;2.53;;;;;;;6.45;100.00;97309.66;4932127;29;20163;-44
2022/11/23 09:20:05;;;;;;;17.30;2.42;;;;;;;6.47;100.00;97312.78;4932932;29;20078;-46
2022/11/23 09:22:32;;;;;;;13.38;3.55;;;;;;;6.48;100.00;97328.09;4932971;29;20462;-45
2022/11/23 09:24:58;;;;;;;17.48;2.88;;;;;;;6.48;100.00;97322.59;4931727;29;20310;-49
2022/11/23 09:27:25;;;;;;;14.57;2.17;;;;;;;6.48;100.00;97319.84;4932643;29;20059;-45
2022/11/23 09:29:52;;;;;;;14.32;2.20;;;;;;;6.48;100.00;97325.34;4932797;29;20142;-45
2022/11/23 09:32:19;;;;;;;7.88;2.88;;;;;;;6.48;100.00;97344.59;4932449;29;20461;-44
2022/11/23 09:34:46;;;;;;;11.80;2.22;;;;;;;6.49;100.00;97342.59;4933042;29;20051;-44
2022/11/23 09:37:14;;;;;;;14.77;2.30;;;;;;;6.49;100.00;97351.63;4932549;29;20505;-45
2022/11/23 09:39:42;;;;;;;11.25;3.00;;;;;;;6.50;99.87;97363.41;4932464;29;20485;-44
2022/11/23 09:42:33;;;;;;;13.63;2.22;;;;;;;6.50;99.73;97350.47;4927829;29;20062;-44
2022/11/23 09:45:22;;;;;;;14.55;3.10;;;;;;;6.52;99.45;97355.53;4929784;29;20086;-45
2022/11/23 09:48:19;;;;;;;9.75;1.67;;;;;;;6.53;99.28;97355.16;4930088;29;20043;-44
2022/11/23 09:50:48;;;;;;;15.75;2.38;;;;;;;6.55;99.30;97377.50;4928734;29;20047;-45
2022/11/23 09:53:20;;;;;;;11.63;2.40;;;;;;;6.55;99.13;97365.72;4925208;29;20066;-48
2022/11/23 09:55:51;;;;;;;8.60;2.10;;;;;;;6.56;99.10;97373.59;4930274;29;20063;-45
2022/11/23 09:58:21;;;;;;;5.63;2.03;;;;;;;6.58;98.94;97371.22;4918978;29;20058;-44
2022/11/23 10:01:10;;;;;;;16.60;4.22;;;;;;;6.62;98.49;97360.19;4929369;29;20052;-46
2022/11/23 10:03:39;;;;;;;7.43;1.88;;;;;;;6.65;98.34;97365.69;4931541;29;20052;-44
2022/11/23 10:06:30;;;;;;;8.80;1.67;;;;;;;6.68;98.19;97369.59;4929750;29;20477;-45
2022/11/23 10:09:15;;;;;;;4.30;1.38;;;;;;;6.71;97.78;97368.78;4932197;29;20043;-44
2022/11/23 10:12:09;;;;;;;9.18;1.55;;;;;;;6.78;97.63;97374.25;4931071;29;20406;-49
2022/11/23 10:15:01;;;;;;;5.38;1.33;;;;;;;6.82;97.36;97386.00;4931100;29;20051;-44
2022/11/23 10:17:55;;;;;;;11.32;1.70;;;;;;;6.86;97.19;97392.25;4929270;29;20039;-45
2022/11/23 10:20:42;;;;;;;8.13;1.52;;;;;;;6.90;96.69;97390.28;4931885;29;20054;-45
2022/11/23 10:23:47;;;;;;;5.00;1.30;;;;;;;6.94;96.29;97398.50;4931746;29;20501;-44
2022/11/23 10:26:17;;;;;;;11.68;1.65;;;;;;;6.96;96.04;97404.41;4923049;29;20048;-44
2022/11/23 10:28:48;;;;;;;21.02;3.53;;;;;;;6.99;96.03;97420.09;4931937;29;20057;-44
2022/11/23 10:31:21;;;;;;;10.80;1.20;;;;;;;7.03;95.86;97424.38;4914698;29;20051;-51
2022/11/23 10:34:06;;;;;;;5.55;1.48;;;;;;;7.03;95.09;97429.09;4930166;29;20308;-44
2022/11/23 10:36:37;;;;;;;3.85;2.28;;;;;;;7.03;94.89;97427.13;4929285;29;20086;-45
2022/11/23 10:39:26;;;;;;;3.38;1.10;;;;;;;7.00;94.67;97424.38;4923735;29;20058;-49
2022/11/23 10:42:01;;;;;;;8.05;1.60;;;;;;;6.96;94.64;97424.44;4924850;29;20039;-45
2022/11/23 10:44:31;;;;;;;4.22;1.02;;;;;;;6.93;94.68;97414.22;4931293;29;20051;-45
2022/11/23 10:46:59;;;;;;;6.38;2.83;;;;;;;6.94;94.31;97421.28;4930525;29;20052;-46
2022/11/23 10:49:28;;;;;;;7.50;1.45;;;;;;;7.02;94.45;97424.75;4928435;29;20135;-46
2022/11/23 10:52:04;;;;;;;9.63;1.50;;;;;;;7.10;94.39;97426.28;4930054;29;20087;-53
2022/11/23 10:54:53;;;;;;;5.18;1.48;;;;;;;7.18;94.15;97422.31;4929997;29;20063;-49
2022/11/23 10:57:21;;;;;;;12.13;1.35;;;;;;;7.25;93.99;97422.28;4930833;29;20050;-50
2022/11/23 10:59:56;;;;;;;5.47;1.40;;;;;;;7.32;93.62;97427.72;4929594;29;20055;-45
2022/11/23 11:02:23;;;;;;;10.48;1.50;;;;;;;7.35;93.54;97429.66;4930465;29;20143;-49
2022/11/23 11:05:10;;;;;;;4.57;1.40;;;;;;;7.36;93.08;97425.72;4930818;29;20573;-45
2022/11/23 11:07:38;;;;;;;7.95;0.88;;;;;;;7.39;93.07;97429.66;4930546;29;20062;-45
2022/11/23 11:10:05;;;;;;;4.43;0.93;;;;;;;7.40;92.81;97420.97;4930718;29;20052;-47
2022/11/23 11:12:34;;;;;;;8.93;1.63;;;;;;;7.40;92.86;97423.72;4928207;29;20043;-45
2022/11/23 11:15:23;;;;;;;7.43;1.08;;;;;;;7.40;92.67;97431.19;4928478;29;20127;-49
2022/11/23 11:17:58;;;;;;;5.68;2.28;;;;;;;7.42;92.55;97432.38;4923114;29;20058;-48
2022/11/23 11:20:30;;;;;;;5.03;1.25;;;;;;;7.43;92.36;97430.41;4931567;29;20047;-46
2022/11/23 11:22:59;;;;;;;4.90;1.52;;;;;;;7.41;92.17;97424.53;4931508;29;20083;-44
2022/11/23 11:25:30;;;;;;;8.52;1.20;;;;;;;7.40;92.11;97420.97;4928441;29;20056;-44
2022/11/23 11:27:58;;;;;;;4.68;1.00;;;;;;;7.40;91.89;97425.69;4928836;29;20052;-45
2022/11/23 11:30:39;;;;;;;6.00;1.25;;;;;;;7.39;92.06;97413.91;4928878;29;20059;-45
2022/11/23 11:33:21;;;;;;;7.07;1.08;;;;;;;7.40;91.83;97432.00;4932000;29;20040;-43
2022/11/23 11:35:52;;;;;;;5.07;1.00;;;;;;;7.41;91.76;97449.28;4918491;29;20417;-51
2022/11/23 11:38:31;;;;;;;7.00;1.40;;;;;;;7.41;91.50;97461.09;4933037;29;20465;-47
2022/11/23 11:41:04;;;;;;;7.10;1.40;;;;;;;7.40;91.48;97453.22;4922670;29;20120;-47
2022/11/23 11:43:41;;;;;;;3.05;2.03;;;;;;;7.40;91.43;97465.00;4931045;29;20574;-48